sensor_id;sensor_type;location;lat;lon;timestamp;P1;durP1;ratioP1;P2;durP2;ratioP2
76284;SDS011;65096;50.998;7.098;2022-12-20T00:01:41;5.90;;;2.63;;
76284;SDS011;65096;50.998;7.098;2022-12-20T00:04:09;6.10;;;2.65;;
76284;SDS011;65096;50.998;7.098;2022-12-20T00:06:36;6.35;;;2.70;;
76284;SDS011;65096;50.998;7.098;2022-12-20T00:09:04;5.47;;;2.90;;
76284;SDS011;65096;50.998;7.098;2022-12-20T00:11:31;6.32;;;2.70;;
76284;SDS011;65096;50.998;7.098;2022-12-20T00:13:58;7.63;;;2.70;;
76284;SDS011;65096;50.998;7.098;2022-12-20T00:16:27;8.23;;;3.17;;
76284;SDS011;65096;50.998;7.098;2022-12-20T00:18:56;6.38;;;2.80;;
76284;SDS011;65096;50.998;7.098;2022-12-20T00:21:24;6.38;;;3.10;;
76284;SDS011;65096;50.998;7.098;2022-12-20T00:23:52;5.78;;;2.70;;
76284;SDS011;65096;50.998;7.098;2022-12-20T00:26:20;7.60;;;2.72;;
76284;SDS011;65096;50.998;7.098;2022-12-20T00:28:48;5.63;;;2.90;;
76284;SDS011;65096;50.998;7.098;2022-12-20T00:31:16;6.40;;;2.90;;
76284;SDS011;65096;50.998;7.098;2022-12-20T00:33:46;7.22;;;2.85;;
76284;SDS011;65096;50.998;7.098;2022-12-20T00:36:14;5.30;;;2.80;;
76284;SDS011;65096;50.998;7.098;2022-12-20T00:38:43;7.00;;;2.92;;
76284;SDS011;65096;50.998;7.098;2022-12-20T00:41:11;8.70;;;3.35;;
76284;SDS011;65096;50.998;7.098;2022-12-20T00:43:39;6.82;;;2.95;;
76284;SDS011;65096;50.998;7.098;2022-12-20T00:46:07;6.20;;;3.00;;
76284;SDS011;65096;50.998;7.098;2022-12-20T00:48:35;7.45;;;3.10;;
76284;SDS011;65096;50.998;7.098;2022-12-20T00:51:04;6.75;;;3.10;;
76284;SDS011;65096;50.998;7.098;2022-12-20T00:53:34;5.53;;;2.88;;
76284;SDS011;65096;50.998;7.098;2022-12-20T00:56:02;6.45;;;3.30;;
76284;SDS011;65096;50.998;7.098;2022-12-20T00:58:30;6.35;;;3.20;;
76284;SDS011;65096;50.998;7.098;2022-12-20T01:00:57;8.55;;;3.10;;
76284;SDS011;65096;50.998;7.098;2022-12-20T01:03:24;7.65;;;3.03;;
76284;SDS011;65096;50.998;7.098;2022-12-20T01:05:52;7.07;;;3.15;;
76284;SDS011;65096;50.998;7.098;2022-12-20T01:08:21;6.20;;;2.63;;
76284;SDS011;65096;50.998;7.098;2022-12-20T01:10:56;7.28;;;2.80;;
76284;SDS011;65096;50.998;7.098;2022-12-20T01:13:24;5.88;;;2.85;;
76284;SDS011;65096;50.998;7.098;2022-12-20T01:15:51;6.85;;;3.05;;
76284;SDS011;65096;50.998;7.098;2022-12-20T01:18:17;6.05;;;2.70;;
76284;SDS011;65096;50.998;7.098;2022-12-20T01:20:44;6.20;;;2.83;;
76284;SDS011;65096;50.998;7.098;2022-12-20T01:23:11;7.40;;;3.00;;
76284;SDS011;65096;50.998;7.098;2022-12-20T01:25:39;6.72;;;3.10;;
76284;SDS011;65096;50.998;7.098;2022-12-20T01:28:05;6.03;;;3.03;;
76284;SDS011;65096;50.998;7.098;2022-12-20T01:30:32;6.45;;;2.90;;
76284;SDS011;65096;50.998;7.098;2022-12-20T01:32:59;6.10;;;3.13;;
76284;SDS011;65096;50.998;7.098;2022-12-20T01:35:26;6.25;;;2.85;;
76284;SDS011;65096;50.998;7.098;2022-12-20T01:37:52;6.55;;;2.90;;
76284;SDS011;65096;50.998;7.098;2022-12-20T01:40:19;6.78;;;3.13;;
76284;SDS011;65096;50.998;7.098;2022-12-20T01:42:47;6.10;;;2.88;;
76284;SDS011;65096;50.998;7.098;2022-12-20T01:45:17;5.88;;;2.92;;
76284;SDS011;65096;50.998;7.098;2022-12-20T01:47:50;7.57;;;3.17;;
76284;SDS011;65096;50.998;7.098;2022-12-20T01:50:17;6.75;;;3.28;;
76284;SDS011;65096;50.998;7.098;2022-12-20T01:52:44;6.90;;;3.20;;
76284;SDS011;65096;50.998;7.098;2022-12-20T01:55:14;7.68;;;3.25;;
76284;SDS011;65096;50.998;7.098;2022-12-20T01:57:47;6.90;;;3.65;;
76284;SDS011;65096;50.998;7.098;2022-12-20T02:00:17;6.95;;;3.10;;
76284;SDS011;65096;50.998;7.098;2022-12-20T02:02:45;7.00;;;3.28;;
76284;SDS011;65096;50.998;7.098;2022-12-20T02:05:14;8.52;;;3.55;;
76284;SDS011;65096;50.998;7.098;2022-12-20T02:07:41;7.45;;;3.30;;
76284;SDS011;65096;50.998;7.098;2022-12-20T02:10:10;6.75;;;3.97;;
76284;SDS011;65096;50.998;7.098;2022-12-20T02:12:38;6.60;;;3.20;;
76284;SDS011;65096;50.998;7.098;2022-12-20T02:15:14;7.45;;;3.70;;
76284;SDS011;65096;50.998;7.098;2022-12-20T02:18:01;7.85;;;4.00;;
76284;SDS011;65096;50.998;7.098;2022-12-20T02:20:53;8.52;;;4.07;;
76284;SDS011;65096;50.998;7.098;2022-12-20T02:26:55;8.48;;;3.70;;
76284;SDS011;65096;50.998;7.098;2022-12-20T02:29:54;8.90;;;4.13;;
76284;SDS011;65096;50.998;7.098;2022-12-20T02:32:27;7.40;;;4.00;;
76284;SDS011;65096;50.998;7.098;2022-12-20T02:34:57;8.07;;;3.90;;
76284;SDS011;65096;50.998;7.098;2022-12-20T02:37:24;8.32;;;4.22;;
76284;SDS011;65096;50.998;7.098;2022-12-20T02:39:50;8.13;;;4.03;;
76284;SDS011;65096;50.998;7.098;2022-12-20T02:42:18;7.18;;;4.05;;
76284;SDS011;65096;50.998;7.098;2022-12-20T02:44:49;6.03;;;3.40;;
76284;SDS011;65096;50.998;7.098;2022-12-20T02:47:39;9.50;;;4.38;;
76284;SDS011;65096;50.998;7.098;2022-12-20T02:50:11;8.10;;;3.65;;
76284;SDS011;65096;50.998;7.098;2022-12-20T02:52:42;7.80;;;3.47;;
76284;SDS011;65096;50.998;7.098;2022-12-20T02:55:09;8.95;;;3.50;;
76284;SDS011;65096;50.998;7.098;2022-12-20T02:57:37;7.53;;;3.92;;
76284;SDS011;65096;50.998;7.098;2022-12-20T03:00:14;6.38;;;3.90;;
76284;SDS011;65096;50.998;7.098;2022-12-20T03:02:43;9.50;;;3.88;;
76284;SDS011;65096;50.998;7.098;2022-12-20T03:05:30;8.18;;;3.30;;
76284;SDS011;65096;50.998;7.098;2022-12-20T03:07:59;7.80;;;3.45;;
76284;SDS011;65096;50.998;7.098;2022-12-20T03:10:26;8.88;;;3.72;;
76284;SDS011;65096;50.998;7.098;2022-12-20T03:12:53;9.68;;;3.60;;
76284;SDS011;65096;50.998;7.098;2022-12-20T03:15:20;8.82;;;3.72;;
76284;SDS011;65096;50.998;7.098;2022-12-20T03:17:48;8.98;;;3.80;;
76284;SDS011;65096;50.998;7.098;2022-12-20T03:20:14;7.95;;;4.03;;
76284;SDS011;65096;50.998;7.098;2022-12-20T03:22:41;5.82;;;3.38;;
76284;SDS011;65096;50.998;7.098;2022-12-20T03:25:08;7.60;;;3.83;;
76284;SDS011;65096;50.998;7.098;2022-12-20T03:27:35;7.85;;;4.30;;
76284;SDS011;65096;50.998;7.098;2022-12-20T03:30:02;7.90;;;3.45;;
76284;SDS011;65096;50.998;7.098;2022-12-20T03:32:29;8.02;;;3.65;;
76284;SDS011;65096;50.998;7.098;2022-12-20T03:34:57;6.80;;;3.25;;
76284;SDS011;65096;50.998;7.098;2022-12-20T03:37:24;7.57;;;4.03;;
76284;SDS011;65096;50.998;7.098;2022-12-20T03:39:51;7.40;;;3.47;;
76284;SDS011;65096;50.998;7.098;2022-12-20T03:42:17;8.65;;;3.10;;
76284;SDS011;65096;50.998;7.098;2022-12-20T03:44:47;7.35;;;3.50;;
76284;SDS011;65096;50.998;7.098;2022-12-20T03:47:13;6.93;;;3.40;;
76284;SDS011;65096;50.998;7.098;2022-12-20T03:49:40;8.63;;;3.47;;
76284;SDS011;65096;50.998;7.098;2022-12-20T03:52:09;9.48;;;3.63;;
76284;SDS011;65096;50.998;7.098;2022-12-20T03:54:37;7.07;;;3.45;;
76284;SDS011;65096;50.998;7.098;2022-12-20T03:57:04;6.82;;;3.33;;
76284;SDS011;65096;50.998;7.098;2022-12-20T03:59:30;7.10;;;3.45;;
76284;SDS011;65096;50.998;7.098;2022-12-20T04:01:57;9.45;;;3.50;;
76284;SDS011;65096;50.998;7.098;2022-12-20T04:04:24;6.75;;;3.60;;
76284;SDS011;65096;50.998;7.098;2022-12-20T04:06:51;7.75;;;3.22;;
76284;SDS011;65096;50.998;7.098;2022-12-20T04:09:19;7.75;;;3.70;;
76284;SDS011;65096;50.998;7.098;2022-12-20T04:11:45;7.53;;;3.53;;
76284;SDS011;65096;50.998;7.098;2022-12-20T04:14:12;6.38;;;3.20;;
76284;SDS011;65096;50.998;7.098;2022-12-20T04:16:39;8.00;;;3.38;;
76284;SDS011;65096;50.998;7.098;2022-12-20T04:19:05;8.35;;;3.13;;
76284;SDS011;65096;50.998;7.098;2022-12-20T04:21:33;7.32;;;3.08;;
76284;SDS011;65096;50.998;7.098;2022-12-20T04:24:01;8.00;;;3.60;;
76284;SDS011;65096;50.998;7.098;2022-12-20T04:26:30;6.95;;;3.38;;
76284;SDS011;65096;50.998;7.098;2022-12-20T04:28:57;8.77;;;3.70;;
76284;SDS011;65096;50.998;7.098;2022-12-20T04:31:23;7.65;;;3.70;;
76284;SDS011;65096;50.998;7.098;2022-12-20T04:33:50;7.28;;;3.45;;
76284;SDS011;65096;50.998;7.098;2022-12-20T04:36:19;6.82;;;3.25;;
76284;SDS011;65096;50.998;7.098;2022-12-20T04:38:46;6.72;;;3.30;;
76284;SDS011;65096;50.998;7.098;2022-12-20T04:41:13;7.35;;;3.63;;
76284;SDS011;65096;50.998;7.098;2022-12-20T04:43:48;6.68;;;3.30;;
76284;SDS011;65096;50.998;7.098;2022-12-20T04:46:15;7.00;;;3.10;;
76284;SDS011;65096;50.998;7.098;2022-12-20T04:48:41;7.18;;;3.67;;
76284;SDS011;65096;50.998;7.098;2022-12-20T04:51:10;8.52;;;3.28;;
76284;SDS011;65096;50.998;7.098;2022-12-20T04:53:37;9.65;;;4.03;;
76284;SDS011;65096;50.998;7.098;2022-12-20T04:56:12;8.57;;;3.25;;
76284;SDS011;65096;50.998;7.098;2022-12-20T04:58:40;8.60;;;3.63;;
76284;SDS011;65096;50.998;7.098;2022-12-20T05:01:10;8.40;;;3.40;;
76284;SDS011;65096;50.998;7.098;2022-12-20T05:03:38;6.18;;;3.53;;
76284;SDS011;65096;50.998;7.098;2022-12-20T05:06:05;8.07;;;3.42;;
76284;SDS011;65096;50.998;7.098;2022-12-20T05:08:33;7.38;;;3.40;;
76284;SDS011;65096;50.998;7.098;2022-12-20T05:11:00;7.10;;;3.63;;
76284;SDS011;65096;50.998;7.098;2022-12-20T05:13:27;8.73;;;3.60;;
76284;SDS011;65096;50.998;7.098;2022-12-20T05:15:54;6.93;;;3.20;;
76284;SDS011;65096;50.998;7.098;2022-12-20T05:18:24;7.35;;;3.33;;
76284;SDS011;65096;50.998;7.098;2022-12-20T05:20:53;8.32;;;3.40;;
76284;SDS011;65096;50.998;7.098;2022-12-20T05:23:34;8.07;;;3.70;;
76284;SDS011;65096;50.998;7.098;2022-12-20T05:26:19;7.00;;;3.55;;
76284;SDS011;65096;50.998;7.098;2022-12-20T05:28:46;7.28;;;3.58;;
76284;SDS011;65096;50.998;7.098;2022-12-20T05:31:13;7.57;;;3.70;;
76284;SDS011;65096;50.998;7.098;2022-12-20T05:33:41;7.97;;;3.60;;
76284;SDS011;65096;50.998;7.098;2022-12-20T05:36:08;6.85;;;3.28;;
76284;SDS011;65096;50.998;7.098;2022-12-20T05:38:34;9.13;;;4.32;;
76284;SDS011;65096;50.998;7.098;2022-12-20T05:41:01;8.23;;;3.40;;
76284;SDS011;65096;50.998;7.098;2022-12-20T05:43:30;6.97;;;3.30;;
76284;SDS011;65096;50.998;7.098;2022-12-20T05:45:57;6.53;;;3.00;;
76284;SDS011;65096;50.998;7.098;2022-12-20T05:48:24;7.38;;;3.45;;
76284;SDS011;65096;50.998;7.098;2022-12-20T05:50:52;8.27;;;3.42;;
76284;SDS011;65096;50.998;7.098;2022-12-20T05:53:19;8.02;;;3.80;;
76284;SDS011;65096;50.998;7.098;2022-12-20T05:55:47;8.57;;;3.55;;
76284;SDS011;65096;50.998;7.098;2022-12-20T05:58:15;6.53;;;3.35;;
76284;SDS011;65096;50.998;7.098;2022-12-20T06:00:42;7.82;;;3.50;;
76284;SDS011;65096;50.998;7.098;2022-12-20T06:03:09;9.43;;;3.80;;
76284;SDS011;65096;50.998;7.098;2022-12-20T06:05:39;7.22;;;3.63;;
76284;SDS011;65096;50.998;7.098;2022-12-20T06:08:08;6.55;;;3.38;;
76284;SDS011;65096;50.998;7.098;2022-12-20T06:10:35;8.65;;;3.10;;
76284;SDS011;65096;50.998;7.098;2022-12-20T06:13:02;7.10;;;3.17;;
76284;SDS011;65096;50.998;7.098;2022-12-20T06:15:29;8.80;;;3.67;;
76284;SDS011;65096;50.998;7.098;2022-12-20T06:17:56;7.40;;;3.35;;
76284;SDS011;65096;50.998;7.098;2022-12-20T06:20:23;7.45;;;3.47;;
76284;SDS011;65096;50.998;7.098;2022-12-20T06:22:50;7.97;;;4.20;;
76284;SDS011;65096;50.998;7.098;2022-12-20T06:25:18;7.18;;;3.20;;
76284;SDS011;65096;50.998;7.098;2022-12-20T06:27:45;8.10;;;3.13;;
76284;SDS011;65096;50.998;7.098;2022-12-20T06:30:12;6.63;;;3.10;;
76284;SDS011;65096;50.998;7.098;2022-12-20T06:32:39;8.32;;;3.75;;
76284;SDS011;65096;50.998;7.098;2022-12-20T06:35:06;8.55;;;3.38;;
76284;SDS011;65096;50.998;7.098;2022-12-20T06:37:33;6.97;;;3.35;;
76284;SDS011;65096;50.998;7.098;2022-12-20T06:40:01;7.50;;;3.95;;
76284;SDS011;65096;50.998;7.098;2022-12-20T06:42:30;7.78;;;3.33;;
76284;SDS011;65096;50.998;7.098;2022-12-20T06:44:57;9.52;;;3.85;;
76284;SDS011;65096;50.998;7.098;2022-12-20T06:47:24;7.68;;;3.58;;
76284;SDS011;65096;50.998;7.098;2022-12-20T06:49:51;7.53;;;3.40;;
76284;SDS011;65096;50.998;7.098;2022-12-20T06:52:17;9.20;;;3.95;;
76284;SDS011;65096;50.998;7.098;2022-12-20T06:54:44;10.18;;;3.90;;
76284;SDS011;65096;50.998;7.098;2022-12-20T06:57:11;8.93;;;3.78;;
76284;SDS011;65096;50.998;7.098;2022-12-20T06:59:39;7.38;;;4.00;;
76284;SDS011;65096;50.998;7.098;2022-12-20T07:02:05;7.32;;;3.58;;
76284;SDS011;65096;50.998;7.098;2022-12-20T07:04:32;9.80;;;4.10;;
76284;SDS011;65096;50.998;7.098;2022-12-20T07:06:59;6.30;;;3.00;;
76284;SDS011;65096;50.998;7.098;2022-12-20T07:09:25;7.65;;;3.70;;
76284;SDS011;65096;50.998;7.098;2022-12-20T07:11:52;6.05;;;3.03;;
76284;SDS011;65096;50.998;7.098;2022-12-20T07:14:19;6.30;;;3.33;;
76284;SDS011;65096;50.998;7.098;2022-12-20T07:16:47;6.88;;;3.30;;
76284;SDS011;65096;50.998;7.098;2022-12-20T07:19:14;6.93;;;3.33;;
76284;SDS011;65096;50.998;7.098;2022-12-20T07:21:42;7.20;;;3.88;;
76284;SDS011;65096;50.998;7.098;2022-12-20T07:24:12;6.38;;;2.97;;
76284;SDS011;65096;50.998;7.098;2022-12-20T07:26:38;5.95;;;3.20;;
76284;SDS011;65096;50.998;7.098;2022-12-20T07:29:05;8.38;;;3.55;;
76284;SDS011;65096;50.998;7.098;2022-12-20T07:31:32;6.72;;;3.30;;
76284;SDS011;65096;50.998;7.098;2022-12-20T07:34:00;7.18;;;3.30;;
76284;SDS011;65096;50.998;7.098;2022-12-20T07:36:27;8.20;;;2.80;;
76284;SDS011;65096;50.998;7.098;2022-12-20T07:38:53;6.13;;;3.28;;
76284;SDS011;65096;50.998;7.098;2022-12-20T07:41:20;5.60;;;3.15;;
76284;SDS011;65096;50.998;7.098;2022-12-20T07:43:48;5.80;;;3.00;;
76284;SDS011;65096;50.998;7.098;2022-12-20T07:46:15;6.15;;;3.20;;
76284;SDS011;65096;50.998;7.098;2022-12-20T07:48:42;7.82;;;3.20;;
76284;SDS011;65096;50.998;7.098;2022-12-20T07:51:12;7.50;;;3.13;;
76284;SDS011;65096;50.998;7.098;2022-12-20T07:53:43;10.57;;;3.30;;
76284;SDS011;65096;50.998;7.098;2022-12-20T07:56:13;6.00;;;3.00;;
76284;SDS011;65096;50.998;7.098;2022-12-20T07:58:41;7.43;;;3.25;;
76284;SDS011;65096;50.998;7.098;2022-12-20T08:01:09;6.90;;;3.53;;
76284;SDS011;65096;50.998;7.098;2022-12-20T08:03:39;6.88;;;3.42;;
76284;SDS011;65096;50.998;7.098;2022-12-20T08:06:09;8.00;;;3.40;;
76284;SDS011;65096;50.998;7.098;2022-12-20T08:08:38;7.63;;;3.55;;
76284;SDS011;65096;50.998;7.098;2022-12-20T08:11:09;7.30;;;3.50;;
76284;SDS011;65096;50.998;7.098;2022-12-20T08:13:36;7.15;;;3.60;;
76284;SDS011;65096;50.998;7.098;2022-12-20T08:16:04;7.07;;;3.40;;
76284;SDS011;65096;50.998;7.098;2022-12-20T08:18:31;6.53;;;3.38;;
76284;SDS011;65096;50.998;7.098;2022-12-20T08:20:58;6.95;;;3.25;;
76284;SDS011;65096;50.998;7.098;2022-12-20T08:23:25;7.45;;;2.92;;
76284;SDS011;65096;50.998;7.098;2022-12-20T08:25:53;6.90;;;3.10;;
76284;SDS011;65096;50.998;7.098;2022-12-20T08:28:19;6.15;;;3.05;;
76284;SDS011;65096;50.998;7.098;2022-12-20T08:30:46;6.40;;;3.10;;
76284;SDS011;65096;50.998;7.098;2022-12-20T08:33:13;8.48;;;3.50;;
76284;SDS011;65096;50.998;7.098;2022-12-20T08:35:40;6.25;;;3.30;;
76284;SDS011;65096;50.998;7.098;2022-12-20T08:38:06;6.47;;;3.20;;
76284;SDS011;65096;50.998;7.098;2022-12-20T08:40:33;6.47;;;3.05;;
76284;SDS011;65096;50.998;7.098;2022-12-20T08:43:01;7.85;;;3.80;;
76284;SDS011;65096;50.998;7.098;2022-12-20T08:45:28;7.68;;;3.45;;
76284;SDS011;65096;50.998;7.098;2022-12-20T08:47:54;6.70;;;3.50;;
76284;SDS011;65096;50.998;7.098;2022-12-20T08:50:21;7.78;;;3.50;;
76284;SDS011;65096;50.998;7.098;2022-12-20T08:52:48;6.75;;;3.35;;
76284;SDS011;65096;50.998;7.098;2022-12-20T08:55:14;8.13;;;3.10;;
76284;SDS011;65096;50.998;7.098;2022-12-20T08:57:41;7.45;;;3.28;;
76284;SDS011;65096;50.998;7.098;2022-12-20T09:00:10;7.40;;;3.75;;
76284;SDS011;65096;50.998;7.098;2022-12-20T09:02:38;7.20;;;3.90;;
76284;SDS011;65096;50.998;7.098;2022-12-20T09:05:05;7.47;;;3.58;;
76284;SDS011;65096;50.998;7.098;2022-12-20T09:07:32;6.63;;;3.53;;
76284;SDS011;65096;50.998;7.098;2022-12-20T09:09:59;7.18;;;3.42;;
76284;SDS011;65096;50.998;7.098;2022-12-20T09:12:26;9.00;;;3.65;;
76284;SDS011;65096;50.998;7.098;2022-12-20T09:14:53;8.20;;;3.50;;
76284;SDS011;65096;50.998;7.098;2022-12-20T09:17:21;7.38;;;3.33;;
76284;SDS011;65096;50.998;7.098;2022-12-20T09:19:47;9.05;;;3.53;;
76284;SDS011;65096;50.998;7.098;2022-12-20T09:22:14;8.25;;;3.47;;
76284;SDS011;65096;50.998;7.098;2022-12-20T09:24:41;7.82;;;3.17;;
76284;SDS011;65096;50.998;7.098;2022-12-20T09:27:07;8.40;;;3.35;;
76284;SDS011;65096;50.998;7.098;2022-12-20T09:29:34;7.88;;;3.47;;
76284;SDS011;65096;50.998;7.098;2022-12-20T09:32:01;5.20;;;2.85;;
76284;SDS011;65096;50.998;7.098;2022-12-20T09:34:29;7.68;;;3.35;;
76284;SDS011;65096;50.998;7.098;2022-12-20T09:36:55;6.93;;;2.58;;
76284;SDS011;65096;50.998;7.098;2022-12-20T09:39:22;5.97;;;2.95;;
76284;SDS011;65096;50.998;7.098;2022-12-20T09:41:49;6.78;;;3.00;;
76284;SDS011;65096;50.998;7.098;2022-12-20T09:44:17;7.28;;;3.60;;
76284;SDS011;65096;50.998;7.098;2022-12-20T09:46:49;8.27;;;3.45;;
76284;SDS011;65096;50.998;7.098;2022-12-20T09:49:19;5.13;;;2.67;;
76284;SDS011;65096;50.998;7.098;2022-12-20T09:52:04;5.28;;;3.20;;
76284;SDS011;65096;50.998;7.098;2022-12-20T09:54:44;8.85;;;3.50;;
76284;SDS011;65096;50.998;7.098;2022-12-20T09:57:21;6.80;;;3.25;;
76284;SDS011;65096;50.998;7.098;2022-12-20T09:59:55;8.70;;;2.90;;
76284;SDS011;65096;50.998;7.098;2022-12-20T10:02:23;7.78;;;3.00;;
76284;SDS011;65096;50.998;7.098;2022-12-20T10:04:52;7.03;;;3.05;;
76284;SDS011;65096;50.998;7.098;2022-12-20T10:07:25;8.20;;;3.00;;
76284;SDS011;65096;50.998;7.098;2022-12-20T10:10:16;7.63;;;2.80;;
76284;SDS011;65096;50.998;7.098;2022-12-20T10:12:58;6.47;;;2.67;;
76284;SDS011;65096;50.998;7.098;2022-12-20T10:15:32;5.85;;;2.15;;
76284;SDS011;65096;50.998;7.098;2022-12-20T10:18:10;5.32;;;2.75;;
76284;SDS011;65096;50.998;7.098;2022-12-20T10:20:51;7.70;;;3.75;;
76284;SDS011;65096;50.998;7.098;2022-12-20T10:23:29;6.78;;;3.00;;
76284;SDS011;65096;50.998;7.098;2022-12-20T10:26:00;5.07;;;2.38;;
76284;SDS011;65096;50.998;7.098;2022-12-20T10:28:28;5.82;;;2.40;;
76284;SDS011;65096;50.998;7.098;2022-12-20T10:30:59;8.18;;;2.88;;
76284;SDS011;65096;50.998;7.098;2022-12-20T10:33:27;6.15;;;2.20;;
76284;SDS011;65096;50.998;7.098;2022-12-20T10:36:04;8.13;;;2.47;;
76284;SDS011;65096;50.998;7.098;2022-12-20T10:38:45;6.43;;;2.72;;
76284;SDS011;65096;50.998;7.098;2022-12-20T10:41:14;6.43;;;2.50;;
76284;SDS011;65096;50.998;7.098;2022-12-20T10:43:45;6.20;;;2.53;;
76284;SDS011;65096;50.998;7.098;2022-12-20T10:46:16;6.93;;;2.60;;
76284;SDS011;65096;50.998;7.098;2022-12-20T10:48:44;6.75;;;2.90;;
76284;SDS011;65096;50.998;7.098;2022-12-20T10:51:13;5.93;;;2.58;;
76284;SDS011;65096;50.998;7.098;2022-12-20T10:53:51;6.70;;;2.75;;
76284;SDS011;65096;50.998;7.098;2022-12-20T10:56:20;7.32;;;2.83;;
76284;SDS011;65096;50.998;7.098;2022-12-20T10:58:52;6.75;;;2.80;;
76284;SDS011;65096;50.998;7.098;2022-12-20T11:01:21;6.38;;;2.38;;
76284;SDS011;65096;50.998;7.098;2022-12-20T11:03:54;7.60;;;2.80;;
76284;SDS011;65096;50.998;7.098;2022-12-20T11:06:24;9.82;;;3.53;;
76284;SDS011;65096;50.998;7.098;2022-12-20T11:08:55;7.05;;;2.38;;
76284;SDS011;65096;50.998;7.098;2022-12-20T11:11:38;7.95;;;2.40;;
76284;SDS011;65096;50.998;7.098;2022-12-20T11:14:21;4.63;;;2.50;;
76284;SDS011;65096;50.998;7.098;2022-12-20T11:16:48;6.22;;;2.35;;
76284;SDS011;65096;50.998;7.098;2022-12-20T11:19:24;7.63;;;2.75;;
76284;SDS011;65096;50.998;7.098;2022-12-20T11:22:06;6.50;;;2.50;;
76284;SDS011;65096;50.998;7.098;2022-12-20T11:24:44;7.78;;;2.80;;
76284;SDS011;65096;50.998;7.098;2022-12-20T11:27:19;6.57;;;2.85;;
76284;SDS011;65096;50.998;7.098;2022-12-20T11:29:59;5.80;;;2.58;;
76284;SDS011;65096;50.998;7.098;2022-12-20T11:35:30;7.85;;;2.80;;
76284;SDS011;65096;50.998;7.098;2022-12-20T11:38:06;6.13;;;2.47;;
76284;SDS011;65096;50.998;7.098;2022-12-20T11:40:45;6.18;;;3.00;;
76284;SDS011;65096;50.998;7.098;2022-12-20T11:43:21;9.63;;;3.03;;
76284;SDS011;65096;50.998;7.098;2022-12-20T11:46:04;6.35;;;2.72;;
76284;SDS011;65096;50.998;7.098;2022-12-20T11:48:47;7.30;;;3.05;;
76284;SDS011;65096;50.998;7.098;2022-12-20T11:51:38;7.35;;;3.10;;
76284;SDS011;65096;50.998;7.098;2022-12-20T11:54:13;6.40;;;2.72;;
76284;SDS011;65096;50.998;7.098;2022-12-20T11:56:49;5.38;;;2.50;;
76284;SDS011;65096;50.998;7.098;2022-12-20T11:59:21;5.97;;;2.78;;
76284;SDS011;65096;50.998;7.098;2022-12-20T12:01:55;7.18;;;2.83;;
76284;SDS011;65096;50.998;7.098;2022-12-20T12:04:29;5.57;;;2.53;;
76284;SDS011;65096;50.998;7.098;2022-12-20T12:07:01;5.40;;;2.55;;
76284;SDS011;65096;50.998;7.098;2022-12-20T12:09:34;5.43;;;2.67;;
76284;SDS011;65096;50.998;7.098;2022-12-20T12:12:07;7.20;;;2.50;;
76284;SDS011;65096;50.998;7.098;2022-12-20T12:17:12;6.82;;;3.00;;
76284;SDS011;65096;50.998;7.098;2022-12-20T12:19:45;5.53;;;2.88;;
76284;SDS011;65096;50.998;7.098;2022-12-20T12:22:15;6.18;;;2.72;;
76284;SDS011;65096;50.998;7.098;2022-12-20T12:24:48;7.18;;;2.58;;
76284;SDS011;65096;50.998;7.098;2022-12-20T12:27:23;5.68;;;2.40;;
76284;SDS011;65096;50.998;7.098;2022-12-20T12:29:50;6.00;;;2.88;;
76284;SDS011;65096;50.998;7.098;2022-12-20T12:32:20;4.95;;;2.28;;
76284;SDS011;65096;50.998;7.098;2022-12-20T12:34:58;7.18;;;3.20;;
76284;SDS011;65096;50.998;7.098;2022-12-20T12:43:40;6.28;;;3.08;;
76284;SDS011;65096;50.998;7.098;2022-12-20T12:46:11;7.82;;;3.15;;
76284;SDS011;65096;50.998;7.098;2022-12-20T12:48:41;7.43;;;2.70;;
76284;SDS011;65096;50.998;7.098;2022-12-20T12:51:11;8.93;;;2.75;;
76284;SDS011;65096;50.998;7.098;2022-12-20T12:53:41;9.35;;;3.03;;
76284;SDS011;65096;50.998;7.098;2022-12-20T12:59:18;7.35;;;3.10;;
76284;SDS011;65096;50.998;7.098;2022-12-20T13:02:18;7.47;;;2.83;;
76284;SDS011;65096;50.998;7.098;2022-12-20T13:04:51;6.60;;;3.53;;
76284;SDS011;65096;50.998;7.098;2022-12-20T13:07:24;8.05;;;3.00;;
76284;SDS011;65096;50.998;7.098;2022-12-20T13:09:53;6.72;;;3.08;;
76284;SDS011;65096;50.998;7.098;2022-12-20T13:18:23;7.75;;;3.65;;
76284;SDS011;65096;50.998;7.098;2022-12-20T13:26:56;9.98;;;3.47;;
76284;SDS011;65096;50.998;7.098;2022-12-20T13:29:25;8.25;;;3.53;;
76284;SDS011;65096;50.998;7.098;2022-12-20T13:31:55;9.00;;;4.10;;
76284;SDS011;65096;50.998;7.098;2022-12-20T13:34:34;11.05;;;3.50;;
76284;SDS011;65096;50.998;7.098;2022-12-20T13:37:02;11.52;;;3.88;;
76284;SDS011;65096;50.998;7.098;2022-12-20T13:39:32;6.35;;;3.45;;
76284;SDS011;65096;50.998;7.098;2022-12-20T13:44:52;6.72;;;3.20;;
76284;SDS011;65096;50.998;7.098;2022-12-20T13:47:29;9.65;;;3.10;;
76284;SDS011;65096;50.998;7.098;2022-12-20T13:50:16;9.23;;;3.10;;
76284;SDS011;65096;50.998;7.098;2022-12-20T13:52:48;6.18;;;3.22;;
76284;SDS011;65096;50.998;7.098;2022-12-20T13:55:22;6.70;;;3.00;;
76284;SDS011;65096;50.998;7.098;2022-12-20T13:57:52;5.68;;;2.65;;
76284;SDS011;65096;50.998;7.098;2022-12-20T14:00:21;7.68;;;2.97;;
76284;SDS011;65096;50.998;7.098;2022-12-20T14:02:52;7.70;;;3.05;;
76284;SDS011;65096;50.998;7.098;2022-12-20T14:05:20;8.45;;;2.88;;
76284;SDS011;65096;50.998;7.098;2022-12-20T14:07:52;5.25;;;2.78;;
76284;SDS011;65096;50.998;7.098;2022-12-20T14:10:24;6.15;;;2.67;;
76284;SDS011;65096;50.998;7.098;2022-12-20T14:12:53;6.82;;;2.72;;
76284;SDS011;65096;50.998;7.098;2022-12-20T14:15:21;7.47;;;2.90;;
76284;SDS011;65096;50.998;7.098;2022-12-20T14:17:51;7.63;;;2.80;;
76284;SDS011;65096;50.998;7.098;2022-12-20T14:20:20;9.48;;;2.70;;
76284;SDS011;65096;50.998;7.098;2022-12-20T14:22:52;8.98;;;3.05;;
76284;SDS011;65096;50.998;7.098;2022-12-20T14:25:27;7.20;;;3.20;;
76284;SDS011;65096;50.998;7.098;2022-12-20T14:27:57;7.10;;;3.00;;
76284;SDS011;65096;50.998;7.098;2022-12-20T14:30:27;6.85;;;3.42;;
76284;SDS011;65096;50.998;7.098;2022-12-20T14:32:57;6.63;;;2.97;;
76284;SDS011;65096;50.998;7.098;2022-12-20T14:35:24;5.45;;;3.10;;
76284;SDS011;65096;50.998;7.098;2022-12-20T14:37:52;8.10;;;3.13;;
76284;SDS011;65096;50.998;7.098;2022-12-20T14:40:20;6.38;;;3.03;;
76284;SDS011;65096;50.998;7.098;2022-12-20T14:42:48;9.23;;;3.55;;
76284;SDS011;65096;50.998;7.098;2022-12-20T14:45:16;6.95;;;3.10;;
76284;SDS011;65096;50.998;7.098;2022-12-20T14:47:47;5.75;;;2.97;;
76284;SDS011;65096;50.998;7.098;2022-12-20T14:50:19;8.45;;;3.92;;
76284;SDS011;65096;50.998;7.098;2022-12-20T14:52:49;6.70;;;3.00;;
76284;SDS011;65096;50.998;7.098;2022-12-20T14:55:16;7.72;;;3.08;;
76284;SDS011;65096;50.998;7.098;2022-12-20T14:57:47;8.90;;;3.17;;
76284;SDS011;65096;50.998;7.098;2022-12-20T15:00:20;6.97;;;3.22;;
76284;SDS011;65096;50.998;7.098;2022-12-20T15:02:50;7.55;;;3.42;;
76284;SDS011;65096;50.998;7.098;2022-12-20T15:05:41;10.00;;;3.63;;
76284;SDS011;65096;50.998;7.098;2022-12-20T15:08:14;7.85;;;3.35;;
76284;SDS011;65096;50.998;7.098;2022-12-20T15:10:46;8.05;;;3.78;;
76284;SDS011;65096;50.998;7.098;2022-12-20T15:13:21;7.35;;;3.00;;
76284;SDS011;65096;50.998;7.098;2022-12-20T15:15:52;6.43;;;2.80;;
76284;SDS011;65096;50.998;7.098;2022-12-20T15:18:19;9.52;;;3.80;;
76284;SDS011;65096;50.998;7.098;2022-12-20T15:20:48;10.50;;;3.35;;
76284;SDS011;65096;50.998;7.098;2022-12-20T15:23:23;7.00;;;3.65;;
76284;SDS011;65096;50.998;7.098;2022-12-20T15:25:50;10.90;;;3.90;;
76284;SDS011;65096;50.998;7.098;2022-12-20T15:28:18;8.68;;;3.50;;
76284;SDS011;65096;50.998;7.098;2022-12-20T15:30:46;9.60;;;3.85;;
76284;SDS011;65096;50.998;7.098;2022-12-20T15:33:15;8.02;;;4.03;;
76284;SDS011;65096;50.998;7.098;2022-12-20T15:35:43;7.25;;;3.30;;
76284;SDS011;65096;50.998;7.098;2022-12-20T15:38:16;8.98;;;3.50;;